createdAt,value
2023-02-18T00:02:37.824Z,83.27
2023-02-18T00:07:40.864Z,82.96
2023-02-18T00:12:42.726Z,82.63
2023-02-18T00:17:44.687Z,82.64
2023-02-18T00:22:46.898Z,81.77
2023-02-18T00:27:48.601Z,81.08
2023-02-18T00:32:50.352Z,80.45
2023-02-18T00:37:53.046Z,80.12
2023-02-18T00:42:54.890Z,80.21
2023-02-18T00:47:56.575Z,79.69
2023-02-18T00:52:58.315Z,79.31
2023-02-18T00:57:59.998Z,79.62
2023-02-18T01:03:02.083Z,79.63
2023-02-18T01:08:04.836Z,79.73
2023-02-18T01:13:06.568Z,79.88
2023-02-18T01:18:09.322Z,79.43
2023-02-18T01:23:11.575Z,79.60
2023-02-18T01:28:14.938Z,79.48
2023-02-18T01:33:16.652Z,79.05
2023-02-18T01:38:18.726Z,78.76
2023-02-18T01:43:21.517Z,78.12
2023-02-18T01:48:25.013Z,77.90
2023-02-18T01:53:35.792Z,77.51
2023-02-18T01:58:38.118Z,76.80
2023-02-18T02:03:39.815Z,76.70
2023-02-18T02:08:41.709Z,76.50
2023-02-18T02:13:49.372Z,75.98
2023-02-18T02:19:08.244Z,75.75
2023-02-18T02:24:48.007Z,75.74
2023-02-18T02:30:01.805Z,75.67
2023-02-18T02:35:14.905Z,75.37
2023-02-18T02:40:54.972Z,75.34
2023-02-18T02:46:06.525Z,75.59
2023-02-18T02:51:37.896Z,75.72
2023-02-18T02:56:39.581Z,75.94
2023-02-18T03:01:54.911Z,76.14
2023-02-18T03:07:09.745Z,76.26
2023-02-18T03:12:25.377Z,76.35
2023-02-18T03:17:35.620Z,76.36
2023-02-18T03:22:43.919Z,76.26
2023-02-18T03:28:01.462Z,76.74
2023-02-18T03:33:07.185Z,76.99
2023-02-18T03:38:18.638Z,77.27
2023-02-18T03:43:20.387Z,77.35
2023-02-18T03:48:22.219Z,77.47
2023-02-18T03:53:27.053Z,77.73
2023-02-18T03:58:28.718Z,76.61
2023-02-18T04:03:30.588Z,75.95
2023-02-18T04:08:32.347Z,75.79
2023-02-18T04:13:34.105Z,74.96
2023-02-18T04:18:35.840Z,75.19
2023-02-18T04:23:37.974Z,74.96
2023-02-18T04:28:39.717Z,75.04
2023-02-18T04:33:41.436Z,74.83
2023-02-18T04:38:43.369Z,74.50
2023-02-18T04:43:45.118Z,74.45
2023-02-18T04:48:46.857Z,74.50
2023-02-18T04:53:48.803Z,74.61
2023-02-18T04:58:50.717Z,74.67
2023-02-18T05:03:52.477Z,74.99
2023-02-18T05:08:54.144Z,74.59
2023-02-18T05:13:55.840Z,74.88
2023-02-18T05:18:57.690Z,74.91
2023-02-18T05:23:59.483Z,75.18
2023-02-18T05:29:01.289Z,74.99
2023-02-18T05:34:03.018Z,74.97
2023-02-18T05:39:04.788Z,75.22
2023-02-18T05:44:25.087Z,75.42
2023-02-18T05:49:27.662Z,75.56
2023-02-18T05:54:29.434Z,76.37
2023-02-18T05:59:31.656Z,76.41
2023-02-18T06:04:33.636Z,76.61
2023-02-18T06:09:35.507Z,76.38
2023-02-18T06:14:38.057Z,76.10
2023-02-18T06:19:39.904Z,75.60
2023-02-18T06:24:41.962Z,75.03
2023-02-18T06:29:43.992Z,74.96
2023-02-18T06:34:45.841Z,74.50
2023-02-18T06:39:47.599Z,74.72
2023-02-18T06:44:49.319Z,74.48
2023-02-18T06:49:51.116Z,74.56
2023-02-18T06:54:53.031Z,74.13
